createdAt,value
2022-09-12T00:00:23.336Z,8.26
2022-09-12T00:01:26.620Z,8.24
2022-09-12T00:02:25.123Z,8.2
2022-09-12T00:03:24.594Z,8.23
2022-09-12T00:04:25.409Z,8.21
2022-09-12T00:05:26.550Z,8.24
2022-09-12T00:06:34.532Z,8.22
2022-09-12T00:07:26.960Z,8.18
2022-09-12T00:08:27.496Z,8.21
2022-09-12T00:09:28.090Z,8.19
2022-09-12T00:10:28.320Z,8.19
2022-09-12T00:11:29.259Z,8.23
2022-09-12T00:12:28.830Z,8.21
2022-09-12T00:13:29.455Z,8.18
2022-09-12T00:14:30.281Z,8.19
2022-09-12T00:15:30.206Z,8.21
2022-09-12T00:16:32.690Z,8.19
2022-09-12T00:17:30.933Z,8.2
2022-09-12T00:18:32.262Z,8.17
2022-09-12T00:19:31.736Z,8.2
2022-09-12T00:20:32.265Z,8.21
2022-09-12T00:21:36.999Z,8.21
2022-09-12T00:22:35.170Z,8.19
2022-09-12T00:23:34.756Z,8.18
2022-09-12T00:24:35.268Z,8.17
2022-09-12T00:25:40.712Z,8.16
2022-09-12T00:26:38.161Z,8.18
2022-09-12T00:27:38.581Z,8.19
2022-09-12T00:28:40.983Z,8.17
2022-09-12T00:29:39.597Z,8.17
2022-09-12T00:30:43.508Z,8.15
2022-09-12T00:31:41.014Z,8.14
2022-09-12T00:32:41.261Z,8.14
2022-09-12T00:33:41.884Z,8.17
2022-09-12T00:34:42.098Z,8.18
2022-09-12T00:35:47.319Z,8.15
2022-09-12T00:36:44.779Z,8.18
2022-09-12T00:37:45.088Z,8.2
2022-09-12T00:38:46.574Z,8.21
2022-09-12T00:39:46.164Z,8.17
2022-09-12T00:40:46.132Z,8.16
2022-09-12T00:41:46.648Z,8.12
2022-09-12T00:42:46.969Z,8.13
2022-09-12T00:43:52.903Z,8.09
2022-09-12T00:44:52.699Z,8.13
2022-09-12T00:45:50.792Z,8.14
2022-09-12T00:47:54.159Z,8.16
2022-09-12T00:51:02.167Z,8.11
2022-09-12T00:53:08.745Z,8.1
2022-09-12T00:54:10.795Z,8.12
2022-09-12T00:56:15.628Z,8.15
2022-09-12T00:57:15.831Z,8.14
2022-09-12T00:59:25.469Z,8.13
2022-09-12T01:00:21.588Z,8.13
2022-09-12T01:01:19.642Z,8.16
2022-09-12T01:02:19.782Z,8.19
2022-09-12T01:03:23.235Z,8.19
2022-09-12T01:04:23.660Z,8.18
2022-09-12T01:05:23.551Z,8.14
2022-09-12T01:07:22.408Z,8.11
2022-09-12T01:08:24.911Z,8.14
2022-09-12T01:09:24.199Z,8.12
2022-09-12T01:10:24.319Z,8.15
2022-09-12T01:11:24.206Z,8.15
2022-09-12T01:12:24.731Z,8.17
2022-09-12T01:13:24.838Z,8.19
2022-09-12T01:14:25.260Z,8.17
2022-09-12T01:15:25.788Z,8.17
2022-09-12T01:16:26.078Z,8.18
2022-09-12T01:50:54.566Z,8.14
2022-09-12T01:51:52.648Z,8.13
2022-09-12T01:54:00.329Z,8.09
2022-09-12T01:55:58.370Z,8.1
2022-09-12T01:56:55.309Z,8.09
2022-09-12T02:00:05.280Z,8.07
2022-09-12T02:02:13.589Z,8.07
2022-09-12T02:03:15.661Z,8.09
2022-09-12T02:09:23.745Z,8.1
2022-09-12T02:10:29.176Z,8.11
2022-09-12T02:11:24.801Z,8.14
2022-09-12T02:17:44.692Z,8.06
2022-09-12T02:20:53.849Z,8.08
2022-09-12T02:22:57.850Z,8.09
2022-09-12T02:23:59.714Z,8.1
2022-09-12T02:25:00.743Z,8.08
2022-09-12T02:26:06.331Z,8.09
2022-09-12T02:28:09.051Z,8.08
2022-09-12T02:29:03.399Z,8.07
2022-09-12T02:30:02.218Z,8.07
2022-09-12T02:39:26.429Z,8.07
2022-09-12T02:40:26.739Z,8.09
2022-09-12T02:41:27.159Z,8.1
2022-09-12T02:42:27.268Z,8.08
2022-09-12T02:43:27.779Z,8.04
2022-09-12T02:44:30.250Z,8.07
2022-09-12T02:45:29.060Z,8.06
2022-09-12T02:47:38.873Z,8.07
2022-09-12T02:48:41.543Z,8.09
2022-09-12T02:49:39.808Z,8.08
2022-09-12T02:50:40.839Z,8.09
2022-09-12T02:51:41.212Z,8.09
2022-09-12T02:52:41.358Z,8.04
2022-09-12T02:53:41.997Z,8.05
2022-09-12T02:54:42.596Z,8.06
2022-09-12T02:55:42.919Z,8.07
2022-09-12T02:56:44.770Z,8.08
2022-09-12T02:57:42.328Z,8.09
2022-09-12T02:58:43.150Z,8.07
2022-09-12T02:59:43.531Z,8.06
2022-09-12T03:00:56.793Z,8.04
2022-09-12T03:28:05.250Z,8.01
2022-09-12T03:28:58.190Z,8.02
2022-09-12T03:29:59.218Z,8.03
2022-09-12T03:30:58.670Z,8.02
2022-09-12T03:31:59.641Z,8.02
2022-09-12T03:32:59.350Z,8
2022-09-12T03:34:00.271Z,8.02
2022-09-12T03:35:00.182Z,8.03
2022-09-12T03:36:00.505Z,8.05
2022-09-12T03:37:01.001Z,8.06
2022-09-12T03:38:01.339Z,8.04
2022-09-12T03:39:01.841Z,8.07
2022-09-12T03:40:03.196Z,8.09
2022-09-12T03:41:02.562Z,8.11
2022-09-12T03:42:03.186Z,8.1
2022-09-12T03:43:07.709Z,8.12
2022-09-12T03:44:05.350Z,8.08
2022-09-12T03:45:06.999Z,8.01
2022-09-12T03:46:06.571Z,8.01
2022-09-12T03:47:11.008Z,8.04
2022-09-12T03:48:09.900Z,8.04
2022-09-12T03:49:09.267Z,8.04
2022-09-12T03:50:10.098Z,8.06
2022-09-12T03:51:11.250Z,8.06
2022-09-12T03:52:10.344Z,8.03
2022-09-12T03:53:14.085Z,8.04
2022-09-12T03:54:14.529Z,8.05
2022-09-12T03:55:15.060Z,8.04
2022-09-12T03:56:15.204Z,7.99
2022-09-12T03:57:15.999Z,8
2022-09-12T03:58:16.193Z,8.02
2022-09-12T03:59:16.518Z,8.02
2022-09-12T04:00:19.893Z,8.04
2022-09-12T04:01:19.303Z,8.03
2022-09-12T04:02:18.016Z,8.03
2022-09-12T04:03:18.273Z,8.02
2022-09-12T04:04:18.596Z,8
2022-09-12T04:05:19.203Z,8
2022-09-12T04:06:21.975Z,7.99
2022-09-12T04:07:20.223Z,8.01
2022-09-12T04:08:20.381Z,8
2022-09-12T04:09:20.538Z,7.97
2022-09-12T04:10:20.983Z,7.99
2022-09-12T04:11:22.844Z,8.01
2022-09-12T04:12:22.132Z,8.02
2022-09-12T04:13:22.333Z,7.97
2022-09-12T04:14:22.961Z,8
2022-09-12T04:15:23.047Z,7.98
2022-09-12T04:16:23.507Z,7.99
2022-09-12T04:17:23.783Z,7.98
2022-09-12T04:18:24.410Z,8
2022-09-12T04:19:26.166Z,8.03
2022-09-12T04:20:25.149Z,8.06
2022-09-12T04:21:25.570Z,8.05
2022-09-12T04:22:25.773Z,8.02
2022-09-12T04:23:26.186Z,8.02
2022-09-12T04:24:26.565Z,8.02
2022-09-12T04:25:27.228Z,8.01
2022-09-12T04:26:27.740Z,7.99
2022-09-12T04:27:28.571Z,7.95
2022-09-12T04:28:29.619Z,7.98
2022-09-12T04:29:28.783Z,7.98
2022-09-12T04:30:29.152Z,8
2022-09-12T04:31:29.815Z,8.01
2022-09-12T04:32:31.165Z,8.01
2022-09-12T04:33:30.652Z,8.02
2022-09-12T04:34:31.732Z,8.01
2022-09-12T04:35:31.075Z,8.03
2022-09-12T04:36:31.779Z,8.04
2022-09-12T04:37:31.913Z,8.05
2022-09-12T04:38:32.630Z,8.06
2022-09-12T04:39:32.739Z,8.03
2022-09-12T04:40:33.676Z,8.05
2022-09-12T04:41:36.231Z,8.05
2022-09-12T04:42:33.788Z,7.99
2022-09-12T04:43:34.303Z,8
2022-09-12T04:44:34.719Z,8.02
2022-09-12T04:45:35.354Z,8.05
2022-09-12T04:46:38.122Z,8.03
2022-09-12T04:47:35.970Z,8.02
2022-09-12T04:48:36.491Z,8.05
2022-09-12T04:49:36.696Z,8.06
2022-09-12T04:50:37.112Z,8.06
2022-09-12T04:51:39.681Z,8.1
2022-09-12T04:52:37.945Z,8.1
2022-09-12T04:53:38.532Z,8.11
2022-09-12T04:54:38.733Z,8.09
2022-09-12T04:55:39.092Z,8.09
2022-09-12T04:56:42.169Z,8.1
2022-09-12T04:57:40.028Z,8.11
2022-09-12T04:58:40.347Z,8.1
2022-09-12T04:59:41.063Z,8.04
2022-09-12T05:00:41.181Z,8.07
2022-09-12T05:01:42.107Z,8.08
2022-09-12T05:02:42.418Z,8.06
2022-09-12T05:03:43.968Z,8.01
2022-09-12T05:04:42.635Z,8.03
2022-09-12T05:05:43.255Z,8.09
2022-09-12T05:06:43.576Z,8.1
2022-09-12T05:07:43.986Z,8.09
2022-09-12T05:08:44.477Z,8.1
2022-09-12T05:09:44.815Z,8.09
2022-09-12T05:10:45.132Z,8.12
2022-09-12T05:12:48.215Z,8.17
2022-09-12T05:13:48.631Z,8.13
2022-09-12T05:14:49.058Z,8.17
2022-09-12T05:16:53.115Z,8.18
2022-09-12T05:17:53.374Z,8.22
2022-09-12T05:18:53.987Z,8.18
2022-09-12T05:19:54.099Z,8.17
2022-09-12T05:20:55.228Z,8.16
2022-09-12T05:21:54.933Z,8.18
2022-09-12T05:22:55.360Z,8.17
2022-09-12T05:23:57.809Z,8.16
2022-09-12T05:24:56.085Z,8.18
2022-09-12T05:25:59.263Z,8.17
2022-09-12T05:26:56.915Z,8.2
2022-09-12T05:27:57.332Z,8.21
2022-09-12T05:28:57.757Z,8.16
2022-09-12T05:29:58.065Z,8.23
2022-09-12T05:32:04.316Z,8.26
2022-09-12T05:33:04.117Z,8.29
2022-09-12T05:34:04.430Z,8.3
2022-09-12T05:35:05.171Z,8.3
2022-09-12T05:36:07.824Z,8.23
2022-09-12T05:37:05.289Z,8.25
2022-09-12T05:38:05.957Z,8.24
2022-09-12T05:39:06.202Z,8.24
2022-09-12T05:40:07.998Z,8.24
2022-09-12T05:41:14.665Z,8.26
2022-09-12T05:42:09.351Z,8.26
2022-09-12T05:43:10.105Z,8.19
2022-09-12T05:44:14.541Z,8.19
2022-09-12T05:45:11.996Z,8.21
2022-09-12T05:46:15.791Z,8.25
2022-09-12T05:47:13.222Z,8.22
2022-09-12T05:48:13.608Z,8.21
2022-09-12T05:49:14.374Z,8.18
2022-09-12T05:50:14.779Z,8.21
2022-09-12T05:51:17.896Z,8.27
2022-09-12T05:52:15.271Z,8.3
2022-09-12T05:53:15.623Z,8.29
2022-09-12T05:54:19.332Z,8.33
2022-09-12T05:55:16.971Z,8.33
2022-09-12T05:56:22.300Z,8.3
2022-09-12T05:57:19.849Z,8.29
2022-09-12T05:58:20.156Z,8.31
2022-09-12T05:59:21.911Z,8.36
2022-09-12T06:00:21.191Z,8.38
2022-09-12T06:01:21.339Z,8.34
2022-09-12T06:02:22.053Z,8.3
2022-09-12T06:03:22.299Z,8.31
2022-09-12T06:04:22.640Z,8.35
2022-09-12T06:05:22.878Z,8.36
2022-09-12T06:06:25.147Z,8.32
2022-09-12T06:07:24.103Z,8.29
2022-09-12T06:08:24.227Z,8.26
2022-09-12T06:09:24.527Z,8.31
2022-09-12T06:10:26.306Z,8.34
2022-09-12T06:11:28.226Z,8.33
2022-09-12T06:12:25.942Z,8.33
2022-09-12T06:13:26.208Z,8.37
2022-09-12T06:14:26.512Z,8.39
2022-09-12T06:15:26.936Z,8.48
2022-09-12T06:16:29.875Z,8.54
2022-09-12T06:17:27.857Z,8.59
2022-09-12T06:18:28.376Z,8.54
2022-09-12T06:19:28.708Z,8.53
2022-09-12T06:20:29.012Z,8.54
2022-09-12T06:21:30.153Z,8.49
2022-09-12T06:22:29.844Z,8.53
2022-09-12T06:23:30.460Z,8.53
2022-09-12T06:24:30.668Z,8.58
2022-09-12T06:25:31.081Z,8.56
2022-09-12T06:26:31.679Z,8.57
2022-09-12T06:27:31.818Z,8.59
2022-09-12T06:28:34.644Z,8.6
2022-09-12T06:29:32.677Z,8.62
2022-09-12T06:30:33.241Z,8.65
2022-09-12T06:31:36.777Z,8.6
2022-09-12T06:32:34.172Z,8.62
2022-09-12T06:33:36.977Z,8.61
2022-09-12T06:34:35.135Z,8.65
2022-09-12T06:35:38.992Z,8.74
2022-09-12T06:36:41.823Z,8.71
2022-09-12T06:37:39.258Z,8.7
2022-09-12T06:38:40.899Z,8.61
2022-09-12T06:39:40.099Z,8.59
2022-09-12T06:40:44.288Z,8.5
2022-09-12T06:41:44.095Z,8.51
2022-09-12T06:42:42.158Z,8.58
2022-09-12T06:43:43.387Z,8.66
2022-09-12T06:44:42.898Z,8.68
2022-09-12T06:45:49.589Z,8.58
2022-09-12T06:46:47.918Z,8.6
2022-09-12T06:47:47.732Z,8.57
2022-09-12T06:48:48.413Z,8.66
2022-09-12T06:49:48.249Z,8.59
2022-09-12T06:51:52.358Z,8.61
2022-09-12T06:52:52.671Z,8.67
2022-09-12T06:53:55.646Z,8.7
2022-09-12T06:54:53.300Z,8.74
2022-09-12T06:56:02.204Z,8.76
2022-09-12T06:56:54.648Z,8.74
2022-09-12T06:57:55.061Z,8.7
2022-09-12T06:58:59.769Z,8.66
2022-09-12T06:59:57.322Z,8.75
2022-09-12T07:01:58.347Z,8.76
2022-09-12T07:02:58.682Z,8.77
2022-09-12T07:04:01.185Z,8.84
2022-09-12T07:04:59.402Z,8.83
2022-09-12T07:07:02.889Z,8.86
2022-09-12T07:08:03.411Z,8.86
2022-09-12T07:09:05.573Z,8.84
2022-09-12T07:10:04.560Z,8.83
2022-09-12T07:12:08.119Z,8.88
2022-09-12T07:13:08.279Z,8.88
2022-09-12T07:14:11.256Z,8.82
2022-09-12T07:15:10.433Z,8.71
2022-09-12T07:16:10.035Z,8.73
2022-09-12T07:17:09.871Z,8.88
2022-09-12T07:18:11.162Z,8.87
2022-09-12T07:19:10.868Z,8.91
2022-09-12T07:20:11.181Z,8.87
2022-09-12T07:21:13.543Z,8.95
2022-09-12T07:22:11.767Z,9.03
2022-09-12T07:23:12.315Z,9.06
2022-09-12T07:24:12.638Z,9.04
2022-09-12T07:25:13.057Z,9
2022-09-12T07:26:14.798Z,8.96
2022-09-12T07:27:13.990Z,8.98
2022-09-12T07:28:14.500Z,9.03
2022-09-12T07:30:22.640Z,9.08
2022-09-12T07:31:21.801Z,9.13
2022-09-12T07:32:20.670Z,9.09
2022-09-12T07:34:24.478Z,9.1
2022-09-12T07:35:24.690Z,9.04
2022-09-12T07:36:25.523Z,9.24
2022-09-12T07:37:25.618Z,9.25
2022-09-12T07:38:25.949Z,9.25
2022-09-12T07:39:26.576Z,9.32
2022-09-12T07:40:26.762Z,9.48
2022-09-12T07:41:29.848Z,9.5
2022-09-12T07:42:27.596Z,9.56
2022-09-12T07:43:28.227Z,9.56
2022-09-12T07:44:28.948Z,9.56
2022-09-12T07:45:28.753Z,9.58
2022-09-12T07:46:31.244Z,9.54
2022-09-12T07:47:29.681Z,9.42
2022-09-12T07:48:30.099Z,9.35
2022-09-12T07:49:30.627Z,9.42
2022-09-12T07:50:32.362Z,9.44
2022-09-12T07:51:31.761Z,9.3
2022-09-12T07:52:31.862Z,9.31
2022-09-12T07:53:35.261Z,9.26
2022-09-12T07:54:32.796Z,9.2
2022-09-12T07:55:33.438Z,9.12
2022-09-12T07:56:38.206Z,9.09
2022-09-12T07:57:36.428Z,9.1
2022-09-12T07:58:38.159Z,9.06
2022-09-12T07:59:52.143Z,9.12
2022-09-12T08:00:40.206Z,9.14
2022-09-12T08:01:41.039Z,9.17
2022-09-12T08:02:41.216Z,9.14
2022-09-12T08:03:45.456Z,9.06
2022-09-12T08:04:43.008Z,8.91
2022-09-12T08:05:43.525Z,8.87
2022-09-12T08:06:43.707Z,8.82
2022-09-12T08:07:44.464Z,8.88
2022-09-12T08:08:44.669Z,8.9
2022-09-12T08:09:45.288Z,8.9
2022-09-12T08:10:45.494Z,8.8
2022-09-12T08:11:45.931Z,8.84
2022-09-12T08:12:46.240Z,8.89
2022-09-12T08:13:51.656Z,8.89
2022-09-12T08:14:47.021Z,8.96
2022-09-12T08:15:47.237Z,8.96
2022-09-12T08:16:47.590Z,9.12
2022-09-12T08:17:48.102Z,9.18
2022-09-12T08:18:49.867Z,9.22
2022-09-12T08:19:48.939Z,9.34
2022-09-12T08:20:49.263Z,9.32
2022-09-12T08:21:49.778Z,9.23
2022-09-12T08:22:50.186Z,9.25
2022-09-12T08:24:54.729Z,9.15
2022-09-12T08:26:01.369Z,9.19
2022-09-12T08:26:56.569Z,9.2
2022-09-12T08:27:56.878Z,9.14
2022-09-12T08:28:57.465Z,9.11
2022-09-12T08:29:58.061Z,9.11
2022-09-12T08:31:02.163Z,9.16
2022-09-12T08:31:59.844Z,9.06
2022-09-12T08:33:00.391Z,8.97
2022-09-12T08:34:00.717Z,8.88
2022-09-12T08:35:00.966Z,8.89
2022-09-12T08:37:01.651Z,8.86
2022-09-12T08:38:02.067Z,8.7
2022-09-12T08:39:06.072Z,8.7
2022-09-12T08:40:04.152Z,8.71
2022-09-12T08:46:24.622Z,8.83
2022-09-12T08:48:22.704Z,8.84
2022-09-12T08:50:26.620Z,9
2022-09-12T08:51:27.751Z,9
2022-09-12T08:53:29.968Z,8.91
2022-09-12T08:54:30.228Z,8.98
2022-09-12T08:57:33.568Z,9
2022-09-12T08:59:41.991Z,9.19
2022-09-12T09:01:45.912Z,9.25
2022-09-12T09:18:29.315Z,9.29
2022-09-12T09:23:42.520Z,9.42
2022-09-12T09:24:40.143Z,9.54
2022-09-12T09:27:52.149Z,9.49
2022-09-12T09:30:46.983Z,9.53
2022-09-12T09:31:49.820Z,9.5
2022-09-12T09:33:51.525Z,9.37
2022-09-12T09:34:49.020Z,9.33
2022-09-12T09:43:24.404Z,9.55
2022-09-12T09:44:17.668Z,9.48
2022-09-12T09:45:25.846Z,9.41
2022-09-12T09:46:18.857Z,9.43
2022-09-12T09:47:18.960Z,9.53
2022-09-12T09:48:24.757Z,9.47
2022-09-12T09:49:23.412Z,9.24
2022-09-12T09:50:23.115Z,9.34
2022-09-12T09:52:29.189Z,9.39
2022-09-12T09:55:40.980Z,9.67
2022-09-12T09:56:40.787Z,9.82
2022-09-12T09:57:41.491Z,9.96
2022-09-12T09:58:40.379Z,9.91
2022-09-12T09:59:39.665Z,9.99
2022-09-12T10:00:41.009Z,10.23
2022-09-12T10:02:41.379Z,10.11
2022-09-12T10:03:52.090Z,10.33
2022-09-12T10:04:55.839Z,10.55
2022-09-12T10:05:53.832Z,10.61
2022-09-12T10:06:53.438Z,10.69
2022-09-12T10:07:52.922Z,10.68
2022-09-12T10:09:03.801Z,10.55
2022-09-12T10:12:02.473Z,10.34
2022-09-12T10:14:00.956Z,10.55
2022-09-12T10:15:03.081Z,10.59
2022-09-12T10:16:08.079Z,10.62
2022-09-12T10:18:07.740Z,10.38
2022-09-12T10:22:23.239Z,10.18
2022-09-12T10:25:27.556Z,10.1
2022-09-12T10:26:31.132Z,10.12
2022-09-12T10:27:32.981Z,10.2
2022-09-12T10:28:38.823Z,10.15
2022-09-12T10:29:34.965Z,10.18
2022-09-12T10:30:34.335Z,10.21
2022-09-12T10:32:43.669Z,10.11
2022-09-12T10:33:47.928Z,9.92
2022-09-12T10:34:46.149Z,9.87
2022-09-12T10:35:49.677Z,9.82
2022-09-12T10:36:47.811Z,9.88
2022-09-12T10:38:57.023Z,10.04
2022-09-12T10:39:56.804Z,10.08
2022-09-12T10:41:57.656Z,9.98
2022-09-12T10:42:59.504Z,10.02
2022-09-12T10:45:02.826Z,10.09
2022-09-12T10:54:27.239Z,10.03
2022-09-12T10:56:31.160Z,10.03
2022-09-12T11:00:46.321Z,9.9
2022-09-12T11:30:08.414Z,9.92
2022-09-12T11:42:33.374Z,9.65
2022-09-12T11:44:42.600Z,9.57
2022-09-12T11:45:43.993Z,9.58
2022-09-12T11:46:39.083Z,9.69
2022-09-12T11:47:39.246Z,9.74
2022-09-12T11:50:43.360Z,9.76
2022-09-12T11:52:48.569Z,9.63
2022-09-12T11:56:08.182Z,9.71
2022-09-12T11:58:03.175Z,9.78
2022-09-12T12:04:24.009Z,9.68
2022-09-12T12:06:27.341Z,9.69
2022-09-12T12:07:24.786Z,9.71
2022-09-12T12:08:27.622Z,9.73
2022-09-12T12:09:25.875Z,9.74
2022-09-12T12:11:38.086Z,9.79
2022-09-12T12:12:30.599Z,9.84
2022-09-12T12:13:41.169Z,9.88
2022-09-12T12:14:43.208Z,9.86
2022-09-12T12:15:37.639Z,9.8
2022-09-12T12:16:39.608Z,9.84
2022-09-12T12:17:38.422Z,9.76
2022-09-12T12:18:40.197Z,9.7
2022-09-12T12:19:38.608Z,9.74
2022-09-12T12:20:39.267Z,9.82
2022-09-12T12:21:44.081Z,9.81
2022-09-12T12:22:52.599Z,9.81
2022-09-12T12:25:57.212Z,9.99
2022-09-12T12:26:58.656Z,9.93
2022-09-12T12:28:02.658Z,9.92
2022-09-12T12:29:00.818Z,9.87
2022-09-12T12:30:00.511Z,9.95
2022-09-12T12:31:02.347Z,9.96
2022-09-12T12:40:31.309Z,10.2
2022-09-12T12:43:37.361Z,10.15
2022-09-12T12:45:48.759Z,10.26
2022-09-12T12:47:51.011Z,10.4
2022-09-12T12:50:53.596Z,10.59
2022-09-12T12:51:59.125Z,10.51
2022-09-12T12:54:02.919Z,10.4
2022-09-12T12:55:03.001Z,10.37
2022-09-12T12:56:01.413Z,10.38
2022-09-12T13:01:22.492Z,10.23
2022-09-12T13:04:30.372Z,10.14
2022-09-12T13:05:30.797Z,10.13
2022-09-12T13:07:34.685Z,10.04
2022-09-12T13:08:35.725Z,9.92
2022-09-12T13:11:41.769Z,9.95
2022-09-12T13:12:47.591Z,9.95
2022-09-12T13:15:52.500Z,9.89
2022-09-12T13:17:52.018Z,9.84
2022-09-12T13:18:52.341Z,9.81
2022-09-12T13:20:24.119Z,9.77
2022-09-12T13:22:01.774Z,9.83
2022-09-12T13:22:59.239Z,9.81
2022-09-12T13:26:12.562Z,9.91
2022-09-12T13:28:17.906Z,9.95
2022-09-12T13:29:21.080Z,10
2022-09-12T13:30:19.259Z,10
2022-09-12T13:31:28.436Z,10.03
2022-09-12T13:32:21.416Z,9.98
2022-09-12T13:43:50.055Z,9.66
2022-09-12T13:45:50.164Z,9.67
2022-09-12T13:46:51.866Z,9.62
2022-09-12T13:48:54.897Z,9.61
2022-09-12T13:49:57.046Z,9.65
2022-09-12T13:50:59.108Z,9.65
2022-09-12T13:53:06.186Z,9.62
2022-09-12T13:54:02.989Z,9.59
2022-09-12T13:55:02.209Z,9.57
2022-09-12T13:56:01.236Z,9.59
2022-09-12T13:57:01.346Z,9.58
2022-09-12T13:58:07.147Z,9.6
2022-09-12T13:59:11.659Z,9.59
2022-09-12T14:00:19.547Z,9.59
2022-09-12T14:01:15.968Z,9.56
2022-09-12T14:02:21.155Z,9.52
2022-09-12T14:04:24.896Z,9.55
2022-09-12T14:05:24.179Z,9.61
2022-09-12T14:06:21.729Z,9.64
2022-09-12T14:07:24.807Z,9.63
2022-09-12T14:08:23.806Z,9.64
2022-09-12T14:09:30.007Z,9.67
2022-09-12T14:10:35.785Z,9.71
2022-09-12T14:11:30.578Z,9.74
2022-09-12T14:12:32.194Z,9.72
2022-09-12T14:13:29.964Z,9.72
2022-09-12T14:14:35.920Z,9.72
2022-09-12T14:15:37.292Z,9.65
2022-09-12T14:16:40.125Z,9.7
2022-09-12T14:17:39.128Z,9.73
2022-09-12T14:18:39.634Z,9.74
2022-09-12T14:19:38.705Z,9.75
2022-09-12T14:20:39.329Z,9.77
2022-09-12T14:21:39.436Z,9.82
2022-09-12T14:22:40.171Z,9.87
2022-09-12T14:23:43.858Z,9.93
2022-09-12T14:24:41.916Z,10
2022-09-12T14:25:43.560Z,10.05
2022-09-12T14:26:44.030Z,10.1
2022-09-12T14:27:46.746Z,10.12
2022-09-12T14:28:46.707Z,10.14
2022-09-12T14:29:46.353Z,10.08
2022-09-12T14:37:07.194Z,10.01
2022-09-12T14:38:18.764Z,10.03
2022-09-12T14:39:15.555Z,10.02
2022-09-12T14:41:12.124Z,10
2022-09-12T14:42:18.040Z,9.93
2022-09-12T14:48:19.445Z,10.07
2022-09-12T14:52:32.058Z,10.04
2022-09-12T14:53:37.498Z,10.05
2022-09-12T14:55:34.408Z,10.06
2022-09-12T14:57:37.596Z,9.98
2022-09-12T14:58:35.698Z,9.93
2022-09-12T14:59:40.725Z,9.86
2022-09-12T15:01:39.450Z,9.81
2022-09-12T15:02:46.163Z,9.85
2022-09-12T15:03:55.366Z,9.9
2022-09-12T15:04:51.918Z,9.92
2022-09-12T15:05:50.447Z,9.96
2022-09-12T15:06:50.077Z,9.97
2022-09-12T15:07:58.889Z,9.93
2022-09-12T15:08:53.481Z,9.95
2022-09-12T15:09:52.409Z,9.96
2022-09-12T15:10:52.462Z,9.93
2022-09-12T15:11:52.577Z,9.95
2022-09-12T15:13:57.507Z,9.89
2022-09-12T15:16:01.564Z,9.93
2022-09-12T15:17:02.951Z,9.95
2022-09-12T15:18:06.255Z,9.97
2022-09-12T15:19:04.288Z,9.96
2022-09-12T15:20:05.828Z,9.93
2022-09-12T15:21:07.800Z,9.92
2022-09-12T15:22:05.542Z,9.92
2022-09-12T15:23:10.354Z,9.93
2022-09-12T15:24:09.337Z,9.92
2022-09-12T15:25:12.311Z,9.95
2022-09-12T15:26:13.864Z,9.93
2022-09-12T15:27:14.180Z,9.91
2022-09-12T15:28:22.781Z,9.92
2022-09-12T15:29:15.311Z,9.92
2022-09-12T15:30:16.038Z,9.96
2022-09-12T15:31:24.725Z,9.93
2022-09-12T15:32:23.935Z,9.91
2022-09-12T15:33:23.633Z,9.95
2022-09-12T15:34:21.896Z,9.94
2022-09-12T15:35:24.056Z,9.86
2022-09-12T15:36:23.751Z,9.81
2022-09-12T15:37:24.684Z,9.79
2022-09-12T15:38:26.532Z,9.85
2022-09-12T15:39:24.593Z,9.8
2022-09-12T15:40:24.850Z,9.79
2022-09-12T15:41:36.277Z,9.8
2022-09-12T15:42:29.436Z,9.75
2022-09-12T15:43:32.070Z,9.74
2022-09-12T15:44:29.547Z,9.76
2022-09-12T15:45:33.442Z,9.76
2022-09-12T15:46:30.960Z,9.76
2022-09-12T15:47:31.309Z,9.75
2022-09-12T15:48:32.030Z,9.72
2022-09-12T15:49:32.340Z,9.74
2022-09-12T15:50:32.649Z,9.72
2022-09-12T15:51:33.169Z,9.73
2022-09-12T15:52:33.341Z,9.73
2022-09-12T15:53:34.004Z,9.72
2022-09-12T15:54:34.522Z,9.73
2022-09-12T15:55:34.944Z,9.75
2022-09-12T15:56:35.153Z,9.74
2022-09-12T15:57:35.560Z,9.71
2022-09-12T15:58:36.284Z,9.69
2022-09-12T15:59:36.598Z,9.68
2022-09-12T16:00:36.811Z,9.65
2022-09-12T16:01:37.591Z,9.65
2022-09-12T16:02:37.825Z,9.63
2022-09-12T16:03:38.465Z,9.65
2022-09-12T16:04:38.376Z,9.64
2022-09-12T16:05:39.008Z,9.64
2022-09-12T16:06:39.567Z,9.62
2022-09-12T16:07:39.948Z,9.58
2022-09-12T16:08:40.037Z,9.6
2022-09-12T16:09:40.559Z,9.64
2022-09-12T16:10:43.842Z,9.61
2022-09-12T16:11:41.697Z,9.6
2022-09-12T16:12:42.216Z,9.6
2022-09-12T16:13:42.326Z,9.57
2022-09-12T16:14:42.749Z,9.58
2022-09-12T16:15:43.085Z,9.6
2022-09-12T16:16:44.597Z,9.63
2022-09-12T16:17:43.982Z,9.62
2022-09-12T16:18:44.548Z,9.62
2022-09-12T16:19:44.697Z,9.62
2022-09-12T16:20:45.034Z,9.58
2022-09-12T16:21:45.836Z,9.56
2022-09-12T16:22:46.074Z,9.52
2022-09-12T16:23:47.695Z,9.53
2022-09-12T16:24:46.805Z,9.5
2022-09-12T16:25:59.298Z,9.49
2022-09-12T16:26:51.738Z,9.5
2022-09-12T16:27:52.049Z,9.51
2022-09-12T16:28:59.284Z,9.48
2022-09-12T16:29:56.747Z,9.5
2022-09-12T16:30:59.057Z,9.49
2022-09-12T16:31:57.552Z,9.47
2022-09-12T16:32:58.010Z,9.45
2022-09-12T16:33:58.350Z,9.43
2022-09-12T16:34:59.357Z,9.44
2022-09-12T16:36:07.869Z,9.44
2022-09-12T16:37:00.400Z,9.44
2022-09-12T16:38:01.016Z,9.42
2022-09-12T16:39:01.237Z,9.39
2022-09-12T16:40:03.407Z,9.39
2022-09-12T16:41:03.391Z,9.35
2022-09-12T16:42:02.689Z,9.33
2022-09-12T16:43:03.108Z,9.33
2022-09-12T16:44:03.367Z,9.34
2022-09-12T16:45:04.417Z,9.33
2022-09-12T16:46:13.334Z,9.34
2022-09-12T16:47:06.061Z,9.31
2022-09-12T16:48:06.303Z,9.34
2022-09-12T16:49:06.748Z,9.35
2022-09-12T16:50:08.477Z,9.35
2022-09-12T16:51:07.554Z,9.33
2022-09-12T16:52:08.180Z,9.34
2022-09-12T16:53:08.390Z,9.35
2022-09-12T16:54:08.808Z,9.36
2022-09-12T16:55:09.589Z,9.38
2022-09-12T16:56:10.048Z,9.36
2022-09-12T16:57:10.254Z,9.36
2022-09-12T16:58:10.463Z,9.34
2022-09-12T16:59:11.214Z,9.33
2022-09-12T17:00:12.224Z,9.34
2022-09-12T17:01:20.628Z,9.37
2022-09-12T17:02:14.555Z,9.35
2022-09-12T17:03:13.578Z,9.32
2022-09-12T17:04:13.887Z,9.32
2022-09-12T17:05:15.527Z,9.32
2022-09-12T17:06:18.310Z,9.29
2022-09-12T17:07:15.871Z,9.32
2022-09-12T17:08:16.288Z,9.31
2022-09-12T17:09:16.800Z,9.31
2022-09-12T17:10:17.717Z,9.28
2022-09-12T17:11:23.217Z,9.28
2022-09-12T17:12:21.010Z,9.28
2022-09-12T17:13:21.214Z,9.26
2022-09-12T17:14:21.786Z,9.27
2022-09-12T17:15:22.049Z,9.3
2022-09-12T17:16:23.405Z,9.3
2022-09-12T17:17:22.799Z,9.31
2022-09-12T17:18:23.507Z,9.31
2022-09-12T17:19:26.592Z,9.28
2022-09-12T17:20:24.135Z,9.28
2022-09-12T17:21:24.618Z,9.27
2022-09-12T17:22:25.070Z,9.27
2022-09-12T17:23:25.487Z,9.28
2022-09-12T17:24:26.414Z,9.28
2022-09-12T17:25:26.104Z,9.27
2022-09-12T17:26:27.249Z,9.26
2022-09-12T17:27:26.935Z,9.27
2022-09-12T17:28:27.457Z,9.28
2022-09-12T17:29:27.767Z,9.29
2022-09-12T17:30:28.182Z,9.32
2022-09-12T17:31:29.003Z,9.33
2022-09-12T17:32:29.234Z,9.33
2022-09-12T17:33:29.843Z,9.33
2022-09-12T17:34:30.360Z,9.29
2022-09-12T17:35:33.549Z,9.27
2022-09-12T17:36:31.195Z,9.26
2022-09-12T17:37:31.514Z,9.23
2022-09-12T17:38:33.358Z,9.23
2022-09-12T17:39:32.414Z,9.23
2022-09-12T17:40:58.123Z,9.21
2022-09-12T17:41:33.481Z,9.22
2022-09-12T17:42:33.899Z,9.22
2022-09-12T17:43:35.036Z,9.22
2022-09-12T17:44:34.625Z,9.23
2022-09-12T17:45:35.055Z,9.22
2022-09-12T17:46:38.113Z,9.22
2022-09-12T17:47:35.876Z,9.23
2022-09-12T17:48:36.185Z,9.22
2022-09-12T17:49:36.706Z,9.24
2022-09-12T17:50:40.907Z,9.24
2022-09-12T17:51:38.457Z,9.23
2022-09-12T17:52:38.616Z,9.25
2022-09-12T17:53:39.802Z,9.23
2022-09-12T17:54:39.500Z,9.23
2022-09-12T17:55:39.921Z,9.22
2022-09-12T17:56:41.357Z,9.21
2022-09-12T17:57:41.773Z,9.2
2022-09-12T17:58:41.272Z,9.18
2022-09-12T17:59:41.500Z,9.21
2022-09-12T18:00:41.998Z,9.22
2022-09-12T18:01:42.608Z,9.22
2022-09-12T18:02:43.486Z,9.21
2022-09-12T18:03:43.312Z,9.21
2022-09-12T18:04:45.610Z,9.21
2022-09-12T18:05:48.795Z,9.21
2022-09-12T18:06:46.647Z,9.2
2022-09-12T18:07:46.756Z,9.19
2022-09-12T18:08:47.178Z,9.19
2022-09-12T18:09:47.815Z,9.16
2022-09-12T18:10:48.209Z,9.15
2022-09-12T18:11:49.630Z,9.18
2022-09-12T18:12:49.043Z,9.2
2022-09-12T18:13:49.456Z,9.18
2022-09-12T18:14:49.673Z,9.19
2022-09-12T18:15:50.220Z,9.18
2022-09-12T18:16:51.031Z,9.16
2022-09-12T18:17:50.918Z,9.18
2022-09-12T18:18:51.433Z,9.18
2022-09-12T18:19:53.834Z,9.17
2022-09-12T18:20:52.169Z,9.18
2022-09-12T18:21:53.074Z,9.19
2022-09-12T18:22:52.998Z,9.19
2022-09-12T18:23:55.683Z,9.17
2022-09-12T18:24:53.834Z,9.17
2022-09-12T18:26:02.252Z,9.17
2022-09-12T18:26:55.791Z,9.16
2022-09-12T18:27:55.182Z,9.16
2022-09-12T18:28:56.574Z,9.18
2022-09-12T18:30:19.497Z,9.19
2022-09-12T18:30:58.670Z,9.2
2022-09-12T18:32:59.313Z,9.21
2022-09-12T18:34:00.243Z,9.21
2022-09-12T18:35:00.145Z,9.21
2022-09-12T18:37:01.497Z,9.22
2022-09-12T18:38:01.807Z,9.22
2022-09-12T18:39:02.054Z,9.18
2022-09-12T18:40:03.297Z,9.21